createdAt,value
2022-09-28T00:03:31.042Z,12.20
2022-09-28T00:08:37.211Z,12.20
2022-09-28T00:13:44.000Z,12.18
2022-09-28T00:18:51.322Z,12.13
2022-09-28T00:24:21.973Z,12.10
2022-09-28T00:29:32.338Z,12.04
2022-09-28T00:34:46.644Z,11.99
2022-09-28T00:39:53.053Z,11.96
2022-09-28T00:44:59.305Z,11.93
2022-09-28T00:50:11.634Z,11.88
2022-09-28T00:55:21.889Z,11.87
2022-09-28T01:00:27.819Z,11.80
2022-09-28T01:05:35.266Z,11.62
2022-09-28T01:10:44.086Z,11.44
2022-09-28T01:15:59.373Z,11.31
2022-09-28T01:21:10.389Z,11.19
2022-09-28T01:26:50.853Z,11.10
2022-09-28T01:32:03.514Z,11.05
2022-09-28T01:37:13.541Z,10.97
2022-09-28T01:42:23.487Z,10.92
2022-09-28T01:47:36.458Z,10.88
2022-09-28T01:52:48.243Z,10.86
2022-09-28T01:57:59.987Z,10.83
2022-09-28T02:03:12.597Z,10.79
2022-09-28T02:08:28.545Z,10.76
2022-09-28T02:13:37.536Z,10.72
2022-09-28T02:18:45.134Z,10.75
2022-09-28T02:24:00.886Z,10.72
2022-09-28T02:29:06.843Z,10.68
2022-09-28T02:34:12.707Z,10.69
2022-09-28T02:39:19.509Z,10.68
2022-09-28T02:44:57.693Z,10.64
2022-09-28T02:50:13.815Z,10.59
2022-09-28T02:55:29.935Z,10.57
2022-09-28T03:00:44.766Z,10.55
2022-09-28T03:06:00.302Z,10.55
2022-09-28T03:11:11.114Z,10.53
2022-09-28T03:16:19.981Z,10.53
2022-09-28T03:21:27.469Z,10.56
2022-09-28T03:26:33.323Z,10.56
2022-09-28T03:31:39.437Z,10.57
2022-09-28T03:36:45.202Z,10.57
2022-09-28T03:41:51.251Z,10.61
2022-09-28T03:46:57.232Z,10.60
2022-09-28T03:52:03.326Z,10.60
2022-09-28T03:57:09.240Z,10.63
2022-09-28T04:02:15.422Z,10.65
2022-09-28T04:07:21.847Z,10.68
2022-09-28T04:12:27.852Z,10.70
2022-09-28T04:17:39.167Z,10.71
2022-09-28T04:22:50.365Z,10.73
2022-09-28T04:28:14.942Z,10.78
2022-09-28T04:33:20.873Z,10.83
2022-09-28T04:38:48.387Z,10.85
2022-09-28T04:43:53.429Z,10.85
2022-09-28T04:48:59.704Z,10.81
2022-09-28T04:54:23.168Z,10.76
2022-09-28T04:59:29.167Z,10.71
2022-09-28T05:04:35.700Z,10.70
2022-09-28T05:09:51.281Z,10.69
2022-09-28T05:14:57.209Z,10.68
2022-09-28T05:20:03.918Z,10.69
2022-09-28T05:25:11.228Z,10.72
2022-09-28T05:30:32.339Z,10.79
2022-09-28T05:36:01.044Z,10.83
2022-09-28T05:41:08.798Z,10.84
2022-09-28T05:46:14.824Z,10.83
2022-09-28T05:51:21.170Z,10.83
2022-09-28T05:56:29.593Z,10.79
2022-09-28T06:01:35.562Z,10.74
2022-09-28T06:06:43.109Z,10.73
2022-09-28T06:11:49.155Z,10.72
2022-09-28T06:17:11.413Z,10.69
2022-09-28T06:22:18.497Z,10.70
2022-09-28T06:27:32.184Z,10.73
2022-09-28T06:32:38.143Z,10.76
2022-09-28T06:37:47.117Z,10.77
2022-09-28T06:43:00.355Z,10.80
2022-09-28T06:48:24.879Z,10.87
2022-09-28T06:53:32.434Z,10.93
2022-09-28T06:58:48.613Z,10.96
2022-09-28T07:03:55.790Z,11.10
2022-09-28T07:09:44.954Z,11.39
2022-09-28T07:15:09.447Z,11.62
2022-09-28T07:20:19.645Z,11.85
2022-09-28T07:25:31.805Z,12.09
2022-09-28T07:31:07.348Z,12.32
2022-09-28T07:36:35.265Z,12.78
2022-09-28T07:41:43.069Z,13.21
2022-09-28T07:46:49.199Z,13.40
2022-09-28T07:52:28.863Z,14.00
2022-09-28T07:58:01.979Z,15.77
2022-09-28T08:03:38.147Z,17.16
2022-09-28T08:08:45.043Z,18.00
2022-09-28T08:13:55.462Z,18.10
2022-09-28T08:19:21.120Z,17.70
2022-09-28T08:24:31.122Z,17.68
2022-09-28T08:29:37.755Z,17.90
2022-09-28T08:35:13.254Z,18.82
2022-09-28T08:40:48.961Z,18.84
2022-09-28T08:46:14.262Z,18.27
2022-09-28T08:51:45.661Z,17.98
2022-09-28T08:57:05.650Z,18.55
2022-09-28T09:02:18.219Z,20.40
2022-09-28T09:07:57.126Z,21.92
2022-09-28T09:13:16.787Z,23.26
2022-09-28T09:18:26.400Z,22.02
2022-09-28T09:23:56.971Z,21.06
2022-09-28T09:29:17.369Z,20.77
2022-09-28T09:34:58.066Z,20.62
2022-09-28T09:40:34.382Z,20.77
2022-09-28T09:46:11.529Z,21.05
2022-09-28T09:51:47.620Z,20.47
2022-09-28T09:57:01.603Z,20.55
2022-09-28T10:02:30.120Z,21.50
2022-09-28T10:07:56.191Z,21.41
2022-09-28T10:13:03.783Z,21.97
2022-09-28T10:18:14.133Z,22.44
2022-09-28T10:23:39.793Z,21.62
2022-09-28T10:28:52.007Z,21.46
2022-09-28T10:33:59.385Z,21.91
2022-09-28T10:39:07.129Z,21.23
2022-09-28T10:44:18.657Z,20.39
2022-09-28T10:49:50.530Z,19.47
2022-09-28T10:54:59.258Z,18.54
2022-09-28T11:00:28.933Z,18.04
2022-09-28T11:06:00.733Z,19.17
2022-09-28T11:11:10.680Z,18.98
2022-09-28T11:16:23.785Z,18.14
2022-09-28T11:21:40.209Z,17.30
2022-09-28T11:26:49.533Z,16.56
2022-09-28T11:32:04.152Z,16.06
2022-09-28T11:37:31.295Z,15.88
2022-09-28T11:42:48.557Z,17.01
2022-09-28T11:47:57.768Z,18.00
2022-09-28T11:53:14.229Z,17.77
2022-09-28T11:58:30.746Z,17.47
2022-09-28T12:03:43.242Z,17.22
2022-09-28T12:08:56.296Z,16.90
2022-09-28T12:14:29.598Z,16.56
2022-09-28T12:19:42.458Z,16.57
2022-09-28T12:24:55.031Z,17.32
2022-09-28T12:30:05.760Z,17.50
2022-09-28T12:35:18.701Z,17.47
2022-09-28T12:40:42.347Z,17.33
2022-09-28T12:46:18.222Z,16.97
2022-09-28T12:51:39.848Z,16.56
2022-09-28T12:56:55.682Z,16.18
2022-09-28T13:02:30.063Z,15.95
2022-09-28T13:07:45.639Z,16.36
2022-09-28T13:13:12.847Z,16.64
2022-09-28T13:18:29.171Z,16.36
2022-09-28T13:23:41.511Z,15.95
2022-09-28T13:28:50.340Z,15.54
2022-09-28T13:33:59.746Z,15.15
2022-09-28T13:39:29.166Z,14.64
2022-09-28T13:44:59.766Z,14.19
2022-09-28T13:50:20.674Z,14.02
2022-09-28T13:55:37.730Z,14.13
2022-09-28T14:00:51.313Z,14.06
2022-09-28T14:06:20.907Z,13.95
2022-09-28T14:11:53.381Z,13.99
2022-09-28T14:17:52.210Z,14.14
2022-09-28T14:23:37.786Z,14.59
2022-09-28T14:28:58.732Z,14.91
2022-09-28T14:34:03.531Z,14.86
2022-09-28T14:39:39.847Z,14.88
2022-09-28T14:45:33.782Z,14.91
2022-09-28T14:50:40.438Z,14.84
2022-09-28T14:55:54.086Z,14.66
2022-09-28T15:01:07.454Z,14.43
2022-09-28T15:06:19.727Z,14.27
2022-09-28T15:11:27.448Z,14.14
2022-09-28T15:16:33.490Z,14.03
2022-09-28T15:21:42.520Z,13.95
2022-09-28T15:26:50.440Z,13.87
2022-09-28T15:31:56.245Z,13.77
2022-09-28T15:37:09.015Z,13.59
2022-09-28T15:42:16.572Z,13.43
2022-09-28T15:47:27.997Z,13.30
2022-09-28T15:52:39.808Z,13.27
2022-09-28T15:57:47.488Z,13.20
2022-09-28T16:03:02.007Z,13.08
2022-09-28T16:08:21.305Z,12.93
2022-09-28T16:13:27.356Z,12.70
2022-09-28T16:18:47.476Z,12.60
2022-09-28T16:23:56.089Z,12.60
2022-09-28T16:29:06.047Z,12.58
2022-09-28T16:34:20.018Z,12.37
2022-09-28T16:39:25.844Z,12.18
2022-09-28T16:44:32.964Z,11.99
2022-09-28T16:49:40.630Z,11.84
2022-09-28T16:55:22.713Z,11.82
2022-09-28T17:00:32.499Z,11.84
2022-09-28T17:05:40.164Z,11.81
2022-09-28T17:11:12.914Z,11.76
2022-09-28T17:21:47.090Z,11.68
2022-09-28T17:26:53.442Z,11.66
2022-09-28T17:31:59.331Z,11.72
2022-09-28T17:37:05.435Z,11.76
2022-09-28T17:42:11.505Z,11.78
2022-09-28T17:47:17.630Z,11.77
2022-09-28T17:52:23.437Z,11.75
2022-09-28T17:57:29.299Z,11.76
2022-09-28T18:02:35.194Z,11.77
2022-09-28T18:07:45.367Z,11.71
2022-09-28T18:12:53.111Z,11.60
2022-09-28T18:17:58.880Z,11.56
2022-09-28T18:23:05.074Z,11.52
2022-09-28T18:28:11.284Z,11.46
2022-09-28T18:33:17.052Z,11.39
2022-09-28T18:38:22.840Z,11.32
2022-09-28T18:43:31.168Z,11.29
2022-09-28T18:48:40.512Z,11.26
2022-09-28T18:53:46.714Z,11.24
2022-09-28T18:58:52.791Z,11.25
2022-09-28T19:04:00.359Z,11.25
2022-09-28T19:09:06.567Z,11.17
2022-09-28T19:14:15.071Z,11.09
2022-09-28T19:19:21.759Z,11.05
2022-09-28T19:24:27.778Z,11.01
2022-09-28T19:29:33.561Z,10.95
2022-09-28T19:34:39.507Z,10.86
2022-09-28T19:39:45.439Z,10.78
2022-09-28T19:44:51.276Z,10.70
2022-09-28T19:49:57.023Z,10.64
2022-09-28T19:55:03.036Z,10.58
2022-09-28T20:00:11.560Z,10.55
2022-09-28T20:05:18.749Z,10.54
2022-09-28T20:10:24.710Z,10.52
2022-09-28T20:15:31.344Z,10.50
2022-09-28T20:20:37.456Z,10.46
2022-09-28T20:25:43.210Z,10.43
2022-09-28T20:30:49.038Z,10.38
2022-09-28T20:35:55.980Z,10.26
2022-09-28T20:41:02.885Z,10.13
2022-09-28T20:46:11.033Z,10.00
2022-09-28T20:51:18.790Z,9.85
2022-09-28T20:56:26.522Z,9.68
2022-09-28T21:01:32.491Z,9.51
2022-09-28T21:06:39.945Z,9.32
2022-09-28T21:11:46.390Z,9.13
2022-09-28T21:16:52.493Z,8.98
2022-09-28T21:21:58.328Z,8.83
2022-09-28T21:27:04.290Z,8.70
2022-09-28T21:32:10.219Z,8.57
2022-09-28T21:37:15.993Z,8.42
2022-09-28T21:42:24.654Z,8.38
2022-09-28T21:47:30.512Z,8.44
2022-09-28T21:52:36.322Z,8.57
2022-09-28T21:57:42.687Z,8.67
2022-09-28T22:02:48.592Z,8.69
2022-09-28T22:07:55.406Z,8.63
2022-09-28T22:13:01.603Z,8.57
2022-09-28T22:18:07.328Z,8.47
2022-09-28T22:23:13.215Z,8.29
2022-09-28T22:28:19.017Z,8.10
2022-09-28T22:33:25.332Z,7.97
2022-09-28T22:38:33.011Z,7.84
2022-09-28T22:43:39.056Z,7.80
2022-09-28T22:48:48.509Z,7.79
2022-09-28T22:53:54.307Z,7.67
2022-09-28T22:59:00.027Z,7.66
2022-09-28T23:04:06.120Z,7.65
2022-09-28T23:09:12.196Z,7.57
2022-09-28T23:14:17.934Z,7.51
2022-09-28T23:19:23.722Z,7.69
2022-09-28T23:24:29.692Z,7.88
2022-09-28T23:29:35.538Z,8.08
2022-09-28T23:34:41.250Z,8.27
2022-09-28T23:39:47.122Z,8.42
2022-09-28T23:44:52.778Z,8.52
2022-09-28T23:49:58.716Z,8.63
2022-09-28T23:55:05.915Z,8.73
